sensor_id;sensor_type;location;lat;lon;timestamp;P1;durP1;ratioP1;P2;durP2;ratioP2
18820;SDS011;9539;59.332;18.034;2023-04-25T00:01:49;5.40;;;3.92;;
18820;SDS011;9539;59.332;18.034;2023-04-25T00:04:12;6.45;;;4.47;;
18820;SDS011;9539;59.332;18.034;2023-04-25T00:06:34;5.68;;;4.18;;
18820;SDS011;9539;59.332;18.034;2023-04-25T00:08:57;2.75;;;2.42;;
18820;SDS011;9539;59.332;18.034;2023-04-25T00:11:19;5.75;;;4.78;;
18820;SDS011;9539;59.332;18.034;2023-04-25T00:13:40;5.32;;;4.70;;
18820;SDS011;9539;59.332;18.034;2023-04-25T00:16:02;7.30;;;4.55;;
18820;SDS011;9539;59.332;18.034;2023-04-25T00:18:24;5.28;;;4.50;;
18820;SDS011;9539;59.332;18.034;2023-04-25T00:20:48;6.22;;;4.70;;
18820;SDS011;9539;59.332;18.034;2023-04-25T00:23:10;7.47;;;5.25;;
18820;SDS011;9539;59.332;18.034;2023-04-25T00:25:33;7.30;;;3.58;;
18820;SDS011;9539;59.332;18.034;2023-04-25T00:27:55;3.17;;;2.88;;
18820;SDS011;9539;59.332;18.034;2023-04-25T00:30:16;5.70;;;4.18;;
18820;SDS011;9539;59.332;18.034;2023-04-25T00:32:38;6.80;;;4.10;;
18820;SDS011;9539;59.332;18.034;2023-04-25T00:35:00;6.38;;;4.50;;
18820;SDS011;9539;59.332;18.034;2023-04-25T00:37:21;8.55;;;4.70;;
18820;SDS011;9539;59.332;18.034;2023-04-25T00:39:43;6.97;;;4.85;;
18820;SDS011;9539;59.332;18.034;2023-04-25T00:42:06;5.35;;;3.67;;
18820;SDS011;9539;59.332;18.034;2023-04-25T00:44:28;6.32;;;4.20;;
18820;SDS011;9539;59.332;18.034;2023-04-25T00:46:50;4.53;;;3.97;;
18820;SDS011;9539;59.332;18.034;2023-04-25T00:49:13;5.10;;;3.75;;
18820;SDS011;9539;59.332;18.034;2023-04-25T00:51:36;5.53;;;4.28;;
18820;SDS011;9539;59.332;18.034;2023-04-25T00:53:58;5.43;;;4.13;;
18820;SDS011;9539;59.332;18.034;2023-04-25T00:56:20;7.50;;;4.60;;
18820;SDS011;9539;59.332;18.034;2023-04-25T00:58:43;6.80;;;3.30;;
18820;SDS011;9539;59.332;18.034;2023-04-25T01:01:05;5.45;;;4.03;;
18820;SDS011;9539;59.332;18.034;2023-04-25T01:03:28;2.65;;;2.42;;
18820;SDS011;9539;59.332;18.034;2023-04-25T01:05:50;5.43;;;3.88;;
18820;SDS011;9539;59.332;18.034;2023-04-25T01:08:12;5.68;;;4.30;;
18820;SDS011;9539;59.332;18.034;2023-04-25T01:10:34;5.47;;;3.60;;
18820;SDS011;9539;59.332;18.034;2023-04-25T01:12:55;4.78;;;4.20;;
18820;SDS011;9539;59.332;18.034;2023-04-25T01:15:18;4.93;;;4.03;;
18820;SDS011;9539;59.332;18.034;2023-04-25T01:17:40;5.95;;;3.72;;
18820;SDS011;9539;59.332;18.034;2023-04-25T01:20:03;3.35;;;2.67;;
18820;SDS011;9539;59.332;18.034;2023-04-25T01:22:26;5.88;;;3.47;;
18820;SDS011;9539;59.332;18.034;2023-04-25T01:24:47;5.22;;;3.35;;
18820;SDS011;9539;59.332;18.034;2023-04-25T01:27:09;4.20;;;3.53;;
18820;SDS011;9539;59.332;18.034;2023-04-25T01:29:31;4.03;;;3.15;;
18820;SDS011;9539;59.332;18.034;2023-04-25T01:31:53;5.03;;;4.50;;
18820;SDS011;9539;59.332;18.034;2023-04-25T01:34:15;4.13;;;3.70;;
18820;SDS011;9539;59.332;18.034;2023-04-25T01:36:36;4.57;;;2.88;;
18820;SDS011;9539;59.332;18.034;2023-04-25T01:38:59;4.43;;;2.97;;
18820;SDS011;9539;59.332;18.034;2023-04-25T01:41:22;4.00;;;3.00;;
18820;SDS011;9539;59.332;18.034;2023-04-25T01:43:44;6.80;;;3.90;;
18820;SDS011;9539;59.332;18.034;2023-04-25T01:46:06;7.28;;;4.30;;
18820;SDS011;9539;59.332;18.034;2023-04-25T01:48:28;5.97;;;4.05;;
18820;SDS011;9539;59.332;18.034;2023-04-25T01:50:49;5.90;;;4.43;;
18820;SDS011;9539;59.332;18.034;2023-04-25T01:53:11;5.50;;;4.03;;
18820;SDS011;9539;59.332;18.034;2023-04-25T01:55:35;7.88;;;4.60;;
18820;SDS011;9539;59.332;18.034;2023-04-25T01:57:57;4.72;;;3.13;;
18820;SDS011;9539;59.332;18.034;2023-04-25T02:00:19;4.22;;;3.13;;
18820;SDS011;9539;59.332;18.034;2023-04-25T02:02:41;6.40;;;3.90;;
18820;SDS011;9539;59.332;18.034;2023-04-25T02:05:03;6.07;;;3.88;;
18820;SDS011;9539;59.332;18.034;2023-04-25T02:07:25;5.82;;;3.38;;
18820;SDS011;9539;59.332;18.034;2023-04-25T02:09:47;5.18;;;3.78;;
18820;SDS011;9539;59.332;18.034;2023-04-25T02:12:10;4.35;;;3.25;;
18820;SDS011;9539;59.332;18.034;2023-04-25T02:14:31;4.30;;;3.72;;
18820;SDS011;9539;59.332;18.034;2023-04-25T02:16:53;3.00;;;2.70;;
18820;SDS011;9539;59.332;18.034;2023-04-25T02:19:14;3.15;;;2.83;;
18820;SDS011;9539;59.332;18.034;2023-04-25T02:21:36;4.78;;;2.67;;
18820;SDS011;9539;59.332;18.034;2023-04-25T02:23:58;3.53;;;2.88;;
18820;SDS011;9539;59.332;18.034;2023-04-25T02:26:20;2.88;;;2.40;;
18820;SDS011;9539;59.332;18.034;2023-04-25T02:28:45;3.85;;;2.45;;
18820;SDS011;9539;59.332;18.034;2023-04-25T02:31:06;2.47;;;2.28;;
18820;SDS011;9539;59.332;18.034;2023-04-25T02:33:28;1.90;;;1.70;;
18820;SDS011;9539;59.332;18.034;2023-04-25T02:35:50;3.20;;;2.50;;
18820;SDS011;9539;59.332;18.034;2023-04-25T02:38:11;4.68;;;2.40;;
18820;SDS011;9539;59.332;18.034;2023-04-25T02:40:33;2.30;;;2.10;;
18820;SDS011;9539;59.332;18.034;2023-04-25T02:42:54;2.45;;;2.20;;
18820;SDS011;9539;59.332;18.034;2023-04-25T02:45:17;2.45;;;2.25;;
18820;SDS011;9539;59.332;18.034;2023-04-25T02:47:39;2.60;;;2.35;;
18820;SDS011;9539;59.332;18.034;2023-04-25T02:50:01;2.10;;;1.90;;
18820;SDS011;9539;59.332;18.034;2023-04-25T02:52:22;1.98;;;1.70;;
18820;SDS011;9539;59.332;18.034;2023-04-25T02:54:45;2.55;;;2.10;;
18820;SDS011;9539;59.332;18.034;2023-04-25T02:57:06;2.15;;;1.92;;
18820;SDS011;9539;59.332;18.034;2023-04-25T02:59:28;1.50;;;1.40;;
18820;SDS011;9539;59.332;18.034;2023-04-25T03:01:51;1.70;;;1.60;;
18820;SDS011;9539;59.332;18.034;2023-04-25T03:04:12;2.00;;;1.88;;
18820;SDS011;9539;59.332;18.034;2023-04-25T03:06:34;2.53;;;1.60;;
18820;SDS011;9539;59.332;18.034;2023-04-25T03:08:56;1.75;;;1.65;;
18820;SDS011;9539;59.332;18.034;2023-04-25T03:11:17;1.92;;;1.80;;
18820;SDS011;9539;59.332;18.034;2023-04-25T03:13:40;2.10;;;1.90;;
18820;SDS011;9539;59.332;18.034;2023-04-25T03:16:01;3.72;;;1.92;;
18820;SDS011;9539;59.332;18.034;2023-04-25T03:18:24;1.85;;;1.75;;
18820;SDS011;9539;59.332;18.034;2023-04-25T03:20:46;2.20;;;2.00;;
18820;SDS011;9539;59.332;18.034;2023-04-25T03:23:08;2.00;;;1.80;;
18820;SDS011;9539;59.332;18.034;2023-04-25T03:25:29;1.90;;;1.77;;
18820;SDS011;9539;59.332;18.034;2023-04-25T03:27:51;2.00;;;1.80;;
18820;SDS011;9539;59.332;18.034;2023-04-25T03:30:13;1.50;;;1.40;;
18820;SDS011;9539;59.332;18.034;2023-04-25T03:32:35;1.63;;;1.52;;
18820;SDS011;9539;59.332;18.034;2023-04-25T03:34:58;1.27;;;1.17;;
18820;SDS011;9539;59.332;18.034;2023-04-25T03:37:19;1.80;;;1.40;;
18820;SDS011;9539;59.332;18.034;2023-04-25T03:39:41;2.50;;;1.70;;
18820;SDS011;9539;59.332;18.034;2023-04-25T03:42:02;2.13;;;1.92;;
18820;SDS011;9539;59.332;18.034;2023-04-25T03:44:24;1.77;;;1.67;;
18820;SDS011;9539;59.332;18.034;2023-04-25T03:46:46;1.70;;;1.60;;
18820;SDS011;9539;59.332;18.034;2023-04-25T03:49:07;1.80;;;1.70;;
18820;SDS011;9539;59.332;18.034;2023-04-25T03:51:30;2.45;;;1.80;;
18820;SDS011;9539;59.332;18.034;2023-04-25T03:53:52;1.60;;;1.50;;
18820;SDS011;9539;59.332;18.034;2023-04-25T03:56:13;2.78;;;1.63;;
18820;SDS011;9539;59.332;18.034;2023-04-25T03:58:35;2.20;;;1.83;;
18820;SDS011;9539;59.332;18.034;2023-04-25T04:00:57;1.52;;;1.42;;
18820;SDS011;9539;59.332;18.034;2023-04-25T04:03:18;2.15;;;1.95;;
18820;SDS011;9539;59.332;18.034;2023-04-25T04:05:40;2.10;;;1.75;;
18820;SDS011;9539;59.332;18.034;2023-04-25T04:08:03;2.72;;;1.98;;
18820;SDS011;9539;59.332;18.034;2023-04-25T04:10:25;1.77;;;1.60;;
18820;SDS011;9539;59.332;18.034;2023-04-25T04:12:47;2.10;;;1.80;;
18820;SDS011;9539;59.332;18.034;2023-04-25T04:15:09;2.38;;;1.70;;
18820;SDS011;9539;59.332;18.034;2023-04-25T04:17:31;1.90;;;1.80;;
18820;SDS011;9539;59.332;18.034;2023-04-25T04:19:52;2.28;;;2.08;;
18820;SDS011;9539;59.332;18.034;2023-04-25T04:22:15;2.63;;;2.30;;
18820;SDS011;9539;59.332;18.034;2023-04-25T04:24:38;2.95;;;2.22;;
18820;SDS011;9539;59.332;18.034;2023-04-25T04:26:59;6.47;;;2.50;;
18820;SDS011;9539;59.332;18.034;2023-04-25T04:29:21;3.25;;;2.47;;
18820;SDS011;9539;59.332;18.034;2023-04-25T04:31:43;5.90;;;2.55;;
18820;SDS011;9539;59.332;18.034;2023-04-25T04:34:04;3.72;;;2.95;;
18820;SDS011;9539;59.332;18.034;2023-04-25T04:36:26;5.72;;;3.10;;
18820;SDS011;9539;59.332;18.034;2023-04-25T04:38:47;6.07;;;3.03;;
18820;SDS011;9539;59.332;18.034;2023-04-25T04:41:10;6.82;;;2.95;;
18820;SDS011;9539;59.332;18.034;2023-04-25T04:43:32;3.38;;;2.92;;
18820;SDS011;9539;59.332;18.034;2023-04-25T04:45:54;4.32;;;3.55;;
18820;SDS011;9539;59.332;18.034;2023-04-25T04:48:16;4.32;;;3.50;;
18820;SDS011;9539;59.332;18.034;2023-04-25T04:50:37;4.55;;;2.50;;
18820;SDS011;9539;59.332;18.034;2023-04-25T04:53:00;9.25;;;3.95;;
18820;SDS011;9539;59.332;18.034;2023-04-25T04:55:21;11.30;;;4.10;;
18820;SDS011;9539;59.332;18.034;2023-04-25T04:57:44;7.18;;;4.10;;
18820;SDS011;9539;59.332;18.034;2023-04-25T05:00:06;8.35;;;4.20;;
18820;SDS011;9539;59.332;18.034;2023-04-25T05:02:30;8.02;;;4.18;;
18820;SDS011;9539;59.332;18.034;2023-04-25T05:04:52;8.43;;;4.40;;
18820;SDS011;9539;59.332;18.034;2023-04-25T05:07:14;5.43;;;4.35;;
18820;SDS011;9539;59.332;18.034;2023-04-25T05:09:36;7.28;;;4.82;;
18820;SDS011;9539;59.332;18.034;2023-04-25T05:11:57;7.95;;;5.07;;
18820;SDS011;9539;59.332;18.034;2023-04-25T05:14:20;7.90;;;4.32;;
18820;SDS011;9539;59.332;18.034;2023-04-25T05:16:43;7.60;;;4.72;;
18820;SDS011;9539;59.332;18.034;2023-04-25T05:19:05;6.53;;;4.72;;
18820;SDS011;9539;59.332;18.034;2023-04-25T05:21:26;14.25;;;5.78;;
18820;SDS011;9539;59.332;18.034;2023-04-25T05:23:48;10.13;;;5.22;;
18820;SDS011;9539;59.332;18.034;2023-04-25T05:26:10;10.13;;;3.65;;
18820;SDS011;9539;59.332;18.034;2023-04-25T05:28:33;9.48;;;4.72;;
18820;SDS011;9539;59.332;18.034;2023-04-25T05:30:56;8.30;;;5.00;;
18820;SDS011;9539;59.332;18.034;2023-04-25T05:33:18;8.45;;;4.68;;
18820;SDS011;9539;59.332;18.034;2023-04-25T05:35:40;6.88;;;3.08;;
18820;SDS011;9539;59.332;18.034;2023-04-25T05:38:01;12.38;;;5.88;;
18820;SDS011;9539;59.332;18.034;2023-04-25T05:40:23;11.10;;;5.53;;
18820;SDS011;9539;59.332;18.034;2023-04-25T05:42:45;9.00;;;5.53;;
18820;SDS011;9539;59.332;18.034;2023-04-25T05:45:06;7.43;;;4.85;;
18820;SDS011;9539;59.332;18.034;2023-04-25T05:47:29;10.60;;;4.90;;
18820;SDS011;9539;59.332;18.034;2023-04-25T05:49:51;11.52;;;5.90;;
18820;SDS011;9539;59.332;18.034;2023-04-25T05:52:13;8.48;;;4.13;;
18820;SDS011;9539;59.332;18.034;2023-04-25T05:54:35;9.38;;;4.90;;
18820;SDS011;9539;59.332;18.034;2023-04-25T05:56:56;9.18;;;5.00;;
18820;SDS011;9539;59.332;18.034;2023-04-25T05:59:18;10.95;;;5.38;;
18820;SDS011;9539;59.332;18.034;2023-04-25T06:01:40;5.85;;;4.75;;
18820;SDS011;9539;59.332;18.034;2023-04-25T06:04:03;11.23;;;4.55;;
18820;SDS011;9539;59.332;18.034;2023-04-25T06:06:24;8.40;;;4.82;;
18820;SDS011;9539;59.332;18.034;2023-04-25T06:08:46;9.05;;;4.72;;
18820;SDS011;9539;59.332;18.034;2023-04-25T06:11:08;7.05;;;4.10;;
18820;SDS011;9539;59.332;18.034;2023-04-25T06:13:30;7.93;;;5.10;;
18820;SDS011;9539;59.332;18.034;2023-04-25T06:15:51;11.82;;;5.22;;
18820;SDS011;9539;59.332;18.034;2023-04-25T06:18:13;7.82;;;4.65;;
18820;SDS011;9539;59.332;18.034;2023-04-25T06:20:36;6.72;;;4.30;;
18820;SDS011;9539;59.332;18.034;2023-04-25T06:22:58;6.32;;;4.50;;
18820;SDS011;9539;59.332;18.034;2023-04-25T06:25:19;9.23;;;4.38;;
18820;SDS011;9539;59.332;18.034;2023-04-25T06:27:41;7.43;;;3.92;;
18820;SDS011;9539;59.332;18.034;2023-04-25T06:30:03;7.13;;;4.40;;
18820;SDS011;9539;59.332;18.034;2023-04-25T06:32:25;6.15;;;3.78;;
18820;SDS011;9539;59.332;18.034;2023-04-25T06:34:48;5.07;;;3.58;;
18820;SDS011;9539;59.332;18.034;2023-04-25T06:37:12;3.42;;;2.53;;
18820;SDS011;9539;59.332;18.034;2023-04-25T06:39:33;6.22;;;3.95;;
18820;SDS011;9539;59.332;18.034;2023-04-25T06:41:55;8.80;;;3.85;;
18820;SDS011;9539;59.332;18.034;2023-04-25T06:44:16;4.82;;;3.58;;
18820;SDS011;9539;59.332;18.034;2023-04-25T06:46:38;6.97;;;3.70;;
18820;SDS011;9539;59.332;18.034;2023-04-25T06:49:00;5.07;;;3.70;;
18820;SDS011;9539;59.332;18.034;2023-04-25T06:51:21;8.90;;;3.60;;
18820;SDS011;9539;59.332;18.034;2023-04-25T06:53:45;4.30;;;3.60;;
18820;SDS011;9539;59.332;18.034;2023-04-25T06:56:07;7.15;;;3.88;;
18820;SDS011;9539;59.332;18.034;2023-04-25T06:58:29;5.60;;;3.67;;
18820;SDS011;9539;59.332;18.034;2023-04-25T07:00:50;4.88;;;3.67;;
18820;SDS011;9539;59.332;18.034;2023-04-25T07:03:12;6.78;;;4.00;;
18820;SDS011;9539;59.332;18.034;2023-04-25T07:05:33;6.10;;;3.97;;
18820;SDS011;9539;59.332;18.034;2023-04-25T07:07:55;6.45;;;4.00;;
18820;SDS011;9539;59.332;18.034;2023-04-25T07:10:18;8.95;;;3.53;;
18820;SDS011;9539;59.332;18.034;2023-04-25T07:12:41;4.68;;;3.50;;
18820;SDS011;9539;59.332;18.034;2023-04-25T07:15:03;4.68;;;3.80;;
18820;SDS011;9539;59.332;18.034;2023-04-25T07:17:26;6.68;;;4.10;;
18820;SDS011;9539;59.332;18.034;2023-04-25T07:19:47;5.57;;;4.00;;
18820;SDS011;9539;59.332;18.034;2023-04-25T07:22:09;3.90;;;3.30;;
18820;SDS011;9539;59.332;18.034;2023-04-25T07:24:31;5.13;;;4.03;;
18820;SDS011;9539;59.332;18.034;2023-04-25T07:26:54;5.95;;;4.00;;
18820;SDS011;9539;59.332;18.034;2023-04-25T07:29:16;4.65;;;3.65;;
18820;SDS011;9539;59.332;18.034;2023-04-25T07:31:38;6.22;;;3.95;;
18820;SDS011;9539;59.332;18.034;2023-04-25T07:33:59;5.65;;;3.85;;
18820;SDS011;9539;59.332;18.034;2023-04-25T07:36:21;5.45;;;4.03;;
18820;SDS011;9539;59.332;18.034;2023-04-25T07:38:43;4.07;;;3.42;;
18820;SDS011;9539;59.332;18.034;2023-04-25T07:41:04;3.97;;;3.42;;
18820;SDS011;9539;59.332;18.034;2023-04-25T07:43:27;4.35;;;3.90;;
18820;SDS011;9539;59.332;18.034;2023-04-25T07:45:49;5.55;;;3.88;;
18820;SDS011;9539;59.332;18.034;2023-04-25T07:48:10;4.35;;;3.72;;
18820;SDS011;9539;59.332;18.034;2023-04-25T07:50:32;5.35;;;4.07;;
18820;SDS011;9539;59.332;18.034;2023-04-25T07:52:54;6.70;;;4.10;;
18820;SDS011;9539;59.332;18.034;2023-04-25T07:55:15;6.47;;;4.28;;
18820;SDS011;9539;59.332;18.034;2023-04-25T07:57:37;7.15;;;4.53;;
18820;SDS011;9539;59.332;18.034;2023-04-25T08:00:00;6.68;;;4.05;;
18820;SDS011;9539;59.332;18.034;2023-04-25T08:02:22;8.98;;;4.72;;
18820;SDS011;9539;59.332;18.034;2023-04-25T08:04:45;6.35;;;4.10;;
18820;SDS011;9539;59.332;18.034;2023-04-25T08:07:07;6.88;;;4.88;;
18820;SDS011;9539;59.332;18.034;2023-04-25T08:09:28;7.72;;;4.57;;
18820;SDS011;9539;59.332;18.034;2023-04-25T08:11:54;6.45;;;4.50;;
18820;SDS011;9539;59.332;18.034;2023-04-25T08:14:16;4.95;;;4.15;;
18820;SDS011;9539;59.332;18.034;2023-04-25T08:16:39;7.18;;;4.72;;
18820;SDS011;9539;59.332;18.034;2023-04-25T08:19:00;8.82;;;5.40;;
18820;SDS011;9539;59.332;18.034;2023-04-25T08:21:22;8.48;;;5.50;;
18820;SDS011;9539;59.332;18.034;2023-04-25T08:23:44;9.55;;;5.35;;
18820;SDS011;9539;59.332;18.034;2023-04-25T08:26:05;12.07;;;6.28;;
18820;SDS011;9539;59.332;18.034;2023-04-25T08:28:27;13.18;;;7.13;;
18820;SDS011;9539;59.332;18.034;2023-04-25T08:30:48;15.38;;;10.20;;
18820;SDS011;9539;59.332;18.034;2023-04-25T08:33:11;18.13;;;12.27;;
18820;SDS011;9539;59.332;18.034;2023-04-25T08:35:33;22.50;;;14.73;;
18820;SDS011;9539;59.332;18.034;2023-04-25T08:37:55;20.20;;;14.25;;
18820;SDS011;9539;59.332;18.034;2023-04-25T08:40:16;23.92;;;13.75;;
18820;SDS011;9539;59.332;18.034;2023-04-25T08:42:38;22.90;;;15.32;;
18820;SDS011;9539;59.332;18.034;2023-04-25T08:45:01;18.88;;;13.63;;
18820;SDS011;9539;59.332;18.034;2023-04-25T08:47:23;17.58;;;12.50;;
18820;SDS011;9539;59.332;18.034;2023-04-25T08:49:47;16.55;;;13.30;;
18820;SDS011;9539;59.332;18.034;2023-04-25T08:52:09;17.55;;;13.85;;
18820;SDS011;9539;59.332;18.034;2023-04-25T08:54:32;19.35;;;13.50;;
18820;SDS011;9539;59.332;18.034;2023-04-25T08:56:54;19.02;;;13.55;;
18820;SDS011;9539;59.332;18.034;2023-04-25T08:59:17;17.75;;;13.07;;
18820;SDS011;9539;59.332;18.034;2023-04-25T09:01:38;16.02;;;12.60;;
18820;SDS011;9539;59.332;18.034;2023-04-25T09:04:00;18.02;;;12.95;;
18820;SDS011;9539;59.332;18.034;2023-04-25T09:06:23;15.32;;;10.90;;
18820;SDS011;9539;59.332;18.034;2023-04-25T09:08:49;16.73;;;10.82;;
18820;SDS011;9539;59.332;18.034;2023-04-25T09:11:12;15.07;;;11.10;;
18820;SDS011;9539;59.332;18.034;2023-04-25T09:13:34;15.90;;;12.10;;
18820;SDS011;9539;59.332;18.034;2023-04-25T09:15:56;15.90;;;11.63;;
18820;SDS011;9539;59.332;18.034;2023-04-25T09:18:22;14.95;;;11.75;;
18820;SDS011;9539;59.332;18.034;2023-04-25T09:20:45;15.80;;;11.75;;
18820;SDS011;9539;59.332;18.034;2023-04-25T09:23:08;14.93;;;11.73;;
18820;SDS011;9539;59.332;18.034;2023-04-25T09:25:33;14.48;;;11.50;;
18820;SDS011;9539;59.332;18.034;2023-04-25T09:27:55;16.30;;;12.05;;
18820;SDS011;9539;59.332;18.034;2023-04-25T09:30:17;13.65;;;10.63;;
18820;SDS011;9539;59.332;18.034;2023-04-25T09:32:39;13.27;;;8.63;;
18820;SDS011;9539;59.332;18.034;2023-04-25T09:35:00;14.10;;;10.23;;
18820;SDS011;9539;59.332;18.034;2023-04-25T09:37:22;14.38;;;10.52;;
18820;SDS011;9539;59.332;18.034;2023-04-25T09:39:46;13.80;;;10.50;;
18820;SDS011;9539;59.332;18.034;2023-04-25T09:42:08;15.63;;;10.68;;
18820;SDS011;9539;59.332;18.034;2023-04-25T09:44:30;14.90;;;9.25;;
18820;SDS011;9539;59.332;18.034;2023-04-25T09:46:52;13.63;;;9.88;;
18820;SDS011;9539;59.332;18.034;2023-04-25T09:49:14;10.88;;;8.55;;
18820;SDS011;9539;59.332;18.034;2023-04-25T09:51:36;10.70;;;8.70;;
18820;SDS011;9539;59.332;18.034;2023-04-25T09:53:57;10.60;;;7.90;;
18820;SDS011;9539;59.332;18.034;2023-04-25T09:56:20;10.20;;;7.20;;
18820;SDS011;9539;59.332;18.034;2023-04-25T09:58:43;11.95;;;7.88;;
18820;SDS011;9539;59.332;18.034;2023-04-25T10:01:05;10.30;;;6.85;;
18820;SDS011;9539;59.332;18.034;2023-04-25T10:03:28;7.57;;;6.30;;
18820;SDS011;9539;59.332;18.034;2023-04-25T10:05:50;11.48;;;6.63;;
18820;SDS011;9539;59.332;18.034;2023-04-25T10:08:13;10.35;;;6.80;;
18820;SDS011;9539;59.332;18.034;2023-04-25T10:10:36;11.75;;;7.15;;
18820;SDS011;9539;59.332;18.034;2023-04-25T10:13:00;9.85;;;7.60;;
18820;SDS011;9539;59.332;18.034;2023-04-25T10:15:21;9.23;;;7.38;;
18820;SDS011;9539;59.332;18.034;2023-04-25T10:17:43;10.20;;;7.75;;
18820;SDS011;9539;59.332;18.034;2023-04-25T10:20:05;10.95;;;7.28;;
18820;SDS011;9539;59.332;18.034;2023-04-25T10:22:31;11.07;;;7.88;;
18820;SDS011;9539;59.332;18.034;2023-04-25T10:24:53;11.55;;;7.70;;
18820;SDS011;9539;59.332;18.034;2023-04-25T10:27:16;12.63;;;8.27;;
18820;SDS011;9539;59.332;18.034;2023-04-25T10:29:39;13.05;;;8.20;;
18820;SDS011;9539;59.332;18.034;2023-04-25T10:32:03;15.23;;;9.15;;
18820;SDS011;9539;59.332;18.034;2023-04-25T10:34:37;12.70;;;8.52;;
18820;SDS011;9539;59.332;18.034;2023-04-25T10:36:59;16.13;;;9.40;;
18820;SDS011;9539;59.332;18.034;2023-04-25T10:39:24;17.92;;;9.20;;
18820;SDS011;9539;59.332;18.034;2023-04-25T10:41:46;15.68;;;8.40;;
18820;SDS011;9539;59.332;18.034;2023-04-25T10:44:08;15.93;;;8.98;;
18820;SDS011;9539;59.332;18.034;2023-04-25T10:46:32;15.55;;;8.70;;
18820;SDS011;9539;59.332;18.034;2023-04-25T10:48:56;11.10;;;8.63;;
18820;SDS011;9539;59.332;18.034;2023-04-25T10:51:19;17.70;;;8.82;;
18820;SDS011;9539;59.332;18.034;2023-04-25T10:53:41;17.40;;;8.45;;
18820;SDS011;9539;59.332;18.034;2023-04-25T10:56:09;14.98;;;8.82;;
18820;SDS011;9539;59.332;18.034;2023-04-25T10:58:32;10.38;;;8.38;;
18820;SDS011;9539;59.332;18.034;2023-04-25T11:00:53;12.18;;;8.60;;
18820;SDS011;9539;59.332;18.034;2023-04-25T11:03:17;10.93;;;8.80;;
18820;SDS011;9539;59.332;18.034;2023-04-25T11:05:42;22.00;;;9.30;;
18820;SDS011;9539;59.332;18.034;2023-04-25T11:08:07;13.98;;;8.20;;
18820;SDS011;9539;59.332;18.034;2023-04-25T11:10:32;13.05;;;7.47;;
18820;SDS011;9539;59.332;18.034;2023-04-25T11:12:55;9.23;;;7.65;;
18820;SDS011;9539;59.332;18.034;2023-04-25T11:15:17;14.95;;;8.02;;
18820;SDS011;9539;59.332;18.034;2023-04-25T11:17:38;14.70;;;8.43;;
18820;SDS011;9539;59.332;18.034;2023-04-25T11:20:02;16.52;;;8.13;;
18820;SDS011;9539;59.332;18.034;2023-04-25T11:22:27;12.05;;;8.57;;
18820;SDS011;9539;59.332;18.034;2023-04-25T11:24:50;15.40;;;8.45;;
18820;SDS011;9539;59.332;18.034;2023-04-25T11:27:11;21.52;;;8.77;;
18820;SDS011;9539;59.332;18.034;2023-04-25T11:29:34;15.00;;;7.93;;
18820;SDS011;9539;59.332;18.034;2023-04-25T11:31:56;9.43;;;7.85;;
18820;SDS011;9539;59.332;18.034;2023-04-25T11:34:18;10.02;;;8.52;;
18820;SDS011;9539;59.332;18.034;2023-04-25T11:36:41;18.05;;;8.55;;
18820;SDS011;9539;59.332;18.034;2023-04-25T11:39:03;15.02;;;7.82;;
18820;SDS011;9539;59.332;18.034;2023-04-25T11:41:26;15.88;;;8.88;;
18820;SDS011;9539;59.332;18.034;2023-04-25T11:43:47;16.42;;;8.88;;
18820;SDS011;9539;59.332;18.034;2023-04-25T11:46:09;22.50;;;9.30;;
18820;SDS011;9539;59.332;18.034;2023-04-25T11:48:36;19.85;;;8.00;;
18820;SDS011;9539;59.332;18.034;2023-04-25T11:50:59;17.77;;;8.43;;
18820;SDS011;9539;59.332;18.034;2023-04-25T11:53:22;30.17;;;8.82;;
18820;SDS011;9539;59.332;18.034;2023-04-25T11:55:45;17.67;;;7.88;;
18820;SDS011;9539;59.332;18.034;2023-04-25T11:58:06;19.33;;;7.45;;
18820;SDS011;9539;59.332;18.034;2023-04-25T12:00:28;15.10;;;8.43;;
18820;SDS011;9539;59.332;18.034;2023-04-25T12:02:51;17.48;;;7.85;;
18820;SDS011;9539;59.332;18.034;2023-04-25T12:05:13;10.98;;;7.65;;
18820;SDS011;9539;59.332;18.034;2023-04-25T12:07:35;10.90;;;7.47;;
18820;SDS011;9539;59.332;18.034;2023-04-25T12:09:59;10.93;;;7.38;;
18820;SDS011;9539;59.332;18.034;2023-04-25T12:12:21;9.02;;;7.30;;
18820;SDS011;9539;59.332;18.034;2023-04-25T12:14:45;14.18;;;7.13;;
18820;SDS011;9539;59.332;18.034;2023-04-25T12:17:07;11.85;;;7.03;;
18820;SDS011;9539;59.332;18.034;2023-04-25T12:19:31;13.70;;;6.88;;
18820;SDS011;9539;59.332;18.034;2023-04-25T12:21:53;12.00;;;6.97;;
18820;SDS011;9539;59.332;18.034;2023-04-25T12:24:15;14.65;;;7.07;;
18820;SDS011;9539;59.332;18.034;2023-04-25T12:26:49;13.57;;;6.70;;
18820;SDS011;9539;59.332;18.034;2023-04-25T12:29:15;20.42;;;9.55;;
18820;SDS011;9539;59.332;18.034;2023-04-25T12:31:36;28.58;;;8.60;;
18820;SDS011;9539;59.332;18.034;2023-04-25T12:33:58;13.95;;;7.20;;
18820;SDS011;9539;59.332;18.034;2023-04-25T12:36:20;18.70;;;7.57;;
18820;SDS011;9539;59.332;18.034;2023-04-25T12:38:43;17.02;;;7.78;;
18820;SDS011;9539;59.332;18.034;2023-04-25T12:41:05;14.38;;;6.82;;
18820;SDS011;9539;59.332;18.034;2023-04-25T12:43:28;13.48;;;7.40;;
18820;SDS011;9539;59.332;18.034;2023-04-25T12:45:50;10.02;;;6.55;;
18820;SDS011;9539;59.332;18.034;2023-04-25T12:48:12;14.20;;;6.70;;
18820;SDS011;9539;59.332;18.034;2023-04-25T12:50:34;11.35;;;6.55;;
18820;SDS011;9539;59.332;18.034;2023-04-25T12:52:56;16.52;;;6.40;;
18820;SDS011;9539;59.332;18.034;2023-04-25T12:55:17;10.52;;;5.70;;
18820;SDS011;9539;59.332;18.034;2023-04-25T12:57:39;22.63;;;7.07;;
18820;SDS011;9539;59.332;18.034;2023-04-25T13:00:02;10.73;;;5.47;;
18820;SDS011;9539;59.332;18.034;2023-04-25T13:02:28;10.18;;;5.90;;
18820;SDS011;9539;59.332;18.034;2023-04-25T13:04:50;15.57;;;5.80;;
18820;SDS011;9539;59.332;18.034;2023-04-25T13:07:11;9.80;;;5.72;;
18820;SDS011;9539;59.332;18.034;2023-04-25T13:09:33;8.88;;;6.15;;
18820;SDS011;9539;59.332;18.034;2023-04-25T13:11:55;6.75;;;5.60;;
18820;SDS011;9539;59.332;18.034;2023-04-25T13:14:18;10.85;;;5.55;;
18820;SDS011;9539;59.332;18.034;2023-04-25T13:16:40;10.48;;;5.22;;
18820;SDS011;9539;59.332;18.034;2023-04-25T13:19:02;9.77;;;4.97;;
18820;SDS011;9539;59.332;18.034;2023-04-25T13:21:24;9.02;;;5.70;;
18820;SDS011;9539;59.332;18.034;2023-04-25T13:23:45;8.45;;;4.85;;
18820;SDS011;9539;59.332;18.034;2023-04-25T13:26:07;9.73;;;4.95;;
18820;SDS011;9539;59.332;18.034;2023-04-25T13:28:29;7.22;;;4.45;;
18820;SDS011;9539;59.332;18.034;2023-04-25T13:30:50;5.53;;;4.68;;
18820;SDS011;9539;59.332;18.034;2023-04-25T13:33:13;6.75;;;4.75;;
18820;SDS011;9539;59.332;18.034;2023-04-25T13:35:36;5.22;;;4.50;;
18820;SDS011;9539;59.332;18.034;2023-04-25T13:37:58;11.02;;;5.10;;
18820;SDS011;9539;59.332;18.034;2023-04-25T13:40:19;10.73;;;5.72;;
18820;SDS011;9539;59.332;18.034;2023-04-25T13:42:41;6.88;;;5.65;;
18820;SDS011;9539;59.332;18.034;2023-04-25T13:45:04;7.30;;;5.63;;
18820;SDS011;9539;59.332;18.034;2023-04-25T13:47:26;5.28;;;4.75;;
18820;SDS011;9539;59.332;18.034;2023-04-25T13:49:50;8.65;;;5.18;;
18820;SDS011;9539;59.332;18.034;2023-04-25T13:52:11;8.80;;;5.53;;
18820;SDS011;9539;59.332;18.034;2023-04-25T13:54:33;8.27;;;5.18;;
18820;SDS011;9539;59.332;18.034;2023-04-25T13:56:55;8.20;;;5.70;;
18820;SDS011;9539;59.332;18.034;2023-04-25T13:59:18;8.50;;;4.95;;
18820;SDS011;9539;59.332;18.034;2023-04-25T14:01:40;6.55;;;5.20;;
18820;SDS011;9539;59.332;18.034;2023-04-25T14:04:02;6.15;;;4.85;;
18820;SDS011;9539;59.332;18.034;2023-04-25T14:06:26;9.48;;;5.03;;
18820;SDS011;9539;59.332;18.034;2023-04-25T14:08:48;7.60;;;5.45;;
18820;SDS011;9539;59.332;18.034;2023-04-25T14:11:10;9.02;;;5.45;;
18820;SDS011;9539;59.332;18.034;2023-04-25T14:13:31;7.22;;;5.22;;